フェアバンクス の空港の天気 - METARとTAF

フェアバンクス国際空港 ( PAFA / FAI ) - アメリカ アラスカ州フェアバンクス
飛行場実況気象(Metar)
観測時間05/28 02:53 AKDT (05/28 10:53 UTC)
風向・風速北北東 3m/s
視程10km以上
天気現象
全天の4割程度の雲 雲底高度 5490m
気温7.8℃
湿度53%
気圧1012.8hPa
METARPAFA 281053Z 03005KT 10SM SCT180 08/M01 A2990 RMK AO2 SLP128 T00781011
過去の天気等 Google飛行場航空写真 Wunderground天気予報

過去48時間のMETAR

飛行場予報(TAF)
発表時間: 5/27 21:39 AKDT (5/28 05:39 UTC)
予報対象時間: 27日22時 AKDT ~ 29日4時 AKDT
風向・風速西北西 4m/s
視程10km以上
少しの雲 雲底高度 2740m
全天の4割程度の雲 雲底高度 6100m
28日16時 AKDT から
風向・風速西 3m/s
視程10km以上
全天の4割程度の雲 雲底高度 6100m
PAFA 280539Z 2806/2912 30007KT P6SM FEW090 SCT200
FM290000 27006KT P6SM SCT200